Time;durP1;ratioP1;P1;durP2;ratioP2;P2;SDS_P1;SDS_P2;PMS_P1;PMS_P2;Temp;Humidity;BMP_temperature;BMP_pressure;BME280_temperature;BME280_humidity;BME280_pressure;Samples;Min_cycle;Max_cycle;Signal;HPM_P1;HPM_P2
2023/02/21 07:41:53;;;;;;;;;;;;;;;12.01;62.98;99735.19;5150751;27;1317;-73
2023/02/21 07:44:20;;;;;;;;;;;;;;;12.01;64.38;99733.25;5132376;27;1295;-72
2023/02/21 07:46:47;;;;;;;;;;;;;;;12.04;64.53;99734.38;5150831;27;818;-72
2023/02/21 07:49:13;;;;;;;;;;;;;;;12.20;63.04;99739.34;5151397;27;802;-72
2023/02/21 07:51:39;;;;;;;;;;;;;;;12.07;60.47;99728.00;5151405;27;853;-74
2023/02/21 07:54:06;;;;;;;;;;;;;;;12.07;62.08;99730.78;5151377;27;798;-71
2023/02/21 07:56:32;;;;;;;;;;;;;;;12.45;61.21;99727.94;5150565;27;855;-69
2023/02/21 07:58:59;;;;;;;;;;;;;;;12.70;59.78;99716.47;5150635;27;868;-70
2023/02/21 08:01:25;;;;;;;;;;;;;;;12.60;57.70;99728.50;5150668;27;1982;-70
2023/02/21 08:03:52;;;;;;;;;;;;;;;12.87;58.08;99720.97;5150418;27;801;-69
2023/02/21 08:06:18;;;;;;;;;;;;;;;12.93;56.81;99717.72;5150985;27;854;-70
2023/02/21 08:08:45;;;;;;;;;;;;;;;13.00;57.17;99717.63;5150445;27;991;-73
2023/02/21 08:11:11;;;;;;;;;;;;;;;13.00;56.71;99714.84;5150879;27;881;-71
2023/02/21 08:13:38;;;;;;;;;;;;;;;12.95;55.77;99704.19;5150818;27;826;-69
2023/02/21 08:16:04;;;;;;;;;;;;;;;13.12;55.51;99707.88;5150650;27;873;-69
2023/02/21 08:18:31;;;;;;;;;;;;;;;13.41;53.71;99699.88;5150860;27;893;-69
2023/02/21 08:20:57;;;;;;;;;;;;;;;13.60;52.87;99698.34;5150499;27;1960;-68
2023/02/21 08:23:24;;;;;;;;;;;;;;;13.66;52.52;99691.09;5150209;27;889;-70
2023/02/21 08:25:50;;;;;;;;;;;;;;;13.79;53.14;99702.34;5150946;27;782;-73
2023/02/21 08:28:17;;;;;;;;;;;;;;;14.12;52.03;99696.91;5131775;27;878;-72
2023/02/21 08:30:44;;;;;;;;;;;;;;;14.44;52.04;99696.22;5151338;27;892;-73
2023/02/21 08:33:10;;;;;;;;;;;;;;;14.89;50.44;99690.84;5150613;27;876;-72
2023/02/21 08:35:36;;;;;;;;;;;;;;;14.59;49.57;99680.03;5132745;27;1223;-72
2023/02/21 08:38:03;;;;;;;;;;;;;;;14.31;49.21;99668.31;5151515;27;829;-73
2023/02/21 08:40:30;;;;;;;;;;;;;;;14.11;50.05;99662.78;5151305;27;1349;-75
2023/02/21 08:42:58;;;;;;;;;;;;;;;14.23;49.93;99666.88;5151691;27;767;-76
2023/02/21 08:45:25;;;;;;;;;;;;;;;14.55;49.27;99660.66;5150982;27;841;-75
2023/02/21 08:47:52;;;;;;;;;;;;;;;14.62;49.46;99657.69;5152029;27;817;-74
2023/02/21 08:50:19;;;;;;;;;;;;;;;14.38;48.55;99653.47;5151204;27;1901;-75
2023/02/21 08:52:46;;;;;;;;;;;;;;;13.91;49.39;99646.13;5139250;27;857;-72
2023/02/21 08:55:13;;;;;;;;;;;;;;;13.81;49.79;99636.81;5136787;27;880;-72
2023/02/21 08:57:40;;;;;;;;;;;;;;;13.82;49.71;99634.81;5118103;27;1412;-74
2023/02/21 09:00:10;;;;;;;;;;;;;;;13.87;50.29;99637.91;5137062;27;801;-73
2023/02/21 09:02:40;;;;;;;;;;;;;;;13.81;49.59;99627.72;5136730;27;860;-72
2023/02/21 09:05:08;;;;;;;;;;;;;;;13.81;49.87;99619.38;5136004;27;865;-75
2023/02/21 09:07:34;;;;;;;;;;;;;;;13.85;49.65;99617.31;5118409;27;1478;-77
2023/02/21 09:10:01;;;;;;;;;;;;;;;13.82;49.93;99621.72;5135996;27;1877;-76
2023/02/21 09:12:30;;;;;;;;;;;;;;;13.82;49.45;99616.16;5136012;27;817;-76
2023/02/21 09:14:57;;;;;;;;;;;;;;;13.90;49.35;99597.34;5135526;27;813;-73
2023/02/21 09:17:23;;;;;;;;;;;;;;;13.81;48.96;99625.72;5117116;27;1247;-74
2023/02/21 09:19:50;;;;;;;;;;;;;;;14.01;48.76;99616.56;5135172;27;870;-72
2023/02/21 09:22:17;;;;;;;;;;;;;;;14.36;48.37;99619.75;5117178;27;1186;-75
2023/02/21 09:24:44;;;;;;;;;;;;;;;14.43;47.54;99608.47;5135443;27;798;-73
2023/02/21 09:27:11;;;;;;;;;;;;;;;14.37;47.86;99597.06;5135890;27;838;-73
2023/02/21 09:29:37;;;;;;;;;;;;;;;14.32;47.88;99602.34;5135133;27;1943;-72
2023/02/21 09:32:06;;;;;;;;;;;;;;;14.46;47.75;99591.69;5135789;27;794;-74
2023/02/21 09:34:32;;;;;;;;;;;;;;;14.78;47.43;99581.78;5135878;27;911;-71
2023/02/21 09:36:58;;;;;;;;;;;;;;;14.83;47.48;99589.63;5135434;27;806;-73
2023/02/21 10:10:17;;;;;;;;;;;;;;;16.97;40.71;99504.75;5113437;22;1959;-59
2023/02/21 10:12:48;;;;;;;;;;;;;;;17.19;40.17;99499.91;5073076;28;821;-58
2023/02/21 10:15:30;;;;;;;;;;;;;;;17.47;39.63;99500.09;5072812;28;860;-58
2023/02/21 10:17:59;;;;;;;;;;;;;;;17.87;39.48;99477.00;5072625;28;992;-59
2023/02/21 10:20:41;;;;;;;;;;;;;;;18.29;36.96;99487.72;5072883;28;858;-59
2023/02/21 10:23:18;;;;;;;;;;;;;;;18.21;36.35;99486.44;5072630;28;841;-59
2023/02/21 10:25:45;;;;;;;;;;;;;;;18.49;36.35;99478.88;5072608;28;798;-58
2023/02/21 10:28:19;;;;;;;;;;;;;;;18.76;34.82;99478.88;5072599;28;817;-59
2023/02/21 10:30:48;;;;;;;;;;;;;;;18.77;34.12;99469.22;5072341;28;1910;-59
2023/02/21 10:33:14;;;;;;;;;;;;;;;19.11;34.09;99450.56;5072620;28;909;-59
2023/02/21 10:35:40;;;;;;;;;;;;;;;19.19;33.20;99451.00;5072346;28;862;-59
2023/02/21 10:38:12;;;;;;;;;;;;;;;19.05;33.35;99458.03;5072207;28;802;-59
2023/02/21 10:40:40;;;;;;;;;;;;;;;19.14;33.57;99446.81;5072271;28;885;-59
2023/02/21 10:43:07;;;;;;;;;;;;;;;19.12;33.10;99435.31;5072274;28;889;-60
2023/02/21 10:45:46;;;;;;;;;;;;;;;18.81;33.26;99445.94;5072163;28;810;-59
2023/02/21 10:48:14;;;;;;;;;;;;;;;18.97;33.44;99423.22;5072101;28;899;-59
2023/02/21 10:50:48;;;;;;;;;;;;;;;19.14;33.39;99435.63;5072222;28;1889;-59
2023/02/21 10:53:28;;;;;;;;;;;;;;;19.23;32.35;99423.63;5072029;28;850;-59
2023/02/21 10:56:09;;;;;;;;;;;;;;;19.22;33.15;99421.28;5072067;28;877;-59
2023/02/21 10:58:36;;;;;;;;;;;;;;;19.83;32.03;99410.00;5072083;28;925;-59
2023/02/21 11:01:13;;;;;;;;;;;;;;;20.34;31.73;99404.22;5072148;28;859;-59
2023/02/21 11:03:43;;;;;;;;;;;;;;;20.38;30.79;99398.41;5071809;28;831;-59
2023/02/21 11:06:20;;;;;;;;;;;;;;;20.27;31.23;99393.34;5071692;28;948;-59
2023/02/21 11:08:47;;;;;;;;;;;;;;;20.42;30.63;99384.19;5071571;28;1321;-59
2023/02/21 11:11:14;;;;;;;;;;;;;;;20.25;30.38;99387.44;5071623;28;1918;-59
2023/02/21 11:13:40;;;;;;;;;;;;;;;20.44;30.82;99367.63;5071846;28;818;-59
2023/02/21 11:16:11;;;;;;;;;;;;;;;21.00;30.10;99375.06;5071482;28;877;-59
2023/02/21 11:18:38;;;;;;;;;;;;;;;21.41;30.15;99361.19;5071746;28;794;-59
2023/02/21 11:21:13;;;;;;;;;;;;;;;21.31;29.05;99368.16;5071673;28;806;-59
2023/02/21 11:23:44;;;;;;;;;;;;;;;21.09;28.66;99360.16;5071625;28;845;-59
2023/02/21 11:26:12;;;;;;;;;;;;;;;20.45;29.58;99346.75;5071675;28;821;-59
2023/02/21 11:28:39;;;;;;;;;;;;;;;20.42;29.07;99356.13;5071555;28;1007;-59
2023/02/21 11:31:15;;;;;;;;;;;;;;;20.27;29.13;99342.06;5071447;28;1894;-59
2023/02/21 11:33:47;;;;;;;;;;;;;;;19.96;29.42;99343.25;5071661;28;865;-59
2023/02/21 11:36:17;;;;;;;;;;;;;;;19.86;29.45;99342.50;5071520;28;894;-59
2023/02/21 11:39:00;;;;;;;;;;;;;;;20.42;30.08;99336.47;5071305;28;881;-59
2023/02/21 11:41:33;;;;;;;;;;;;;;;20.37;29.55;99321.84;5071463;28;802;-59
2023/02/21 11:44:00;;;;;;;;;;;;;;;20.60;29.31;99317.44;5053550;28;1717;-59
2023/02/21 11:46:45;;;;;;;;;;;;;;;20.74;29.43;99315.13;5071389;28;833;-59
2023/02/21 11:49:17;;;;;;;;;;;;;;;20.44;29.55;99312.31;5071492;28;814;-59
2023/02/21 11:51:49;;;;;;;;;;;;;;;20.54;29.33;99304.53;5071244;28;1890;-59
2023/02/21 11:54:24;;;;;;;;;;;;;;;20.52;29.20;99296.59;5071431;28;872;-59
2023/02/21 11:56:57;;;;;;;;;;;;;;;19.87;29.46;99295.63;5071362;28;802;-59
2023/02/21 11:59:23;;;;;;;;;;;;;;;19.29;30.00;99289.28;5071302;28;876;-59
2023/02/21 12:01:50;;;;;;;;;;;;;;;19.01;30.70;99283.81;5071634;28;853;-59
2023/02/21 12:04:36;;;;;;;;;;;;;;;18.83;31.63;99279.03;5071345;28;809;-58
2023/02/21 12:07:17;;;;;;;;;;;;;;;18.72;30.81;99273.91;5071030;28;1639;-58
2023/02/21 12:09:43;;;;;;;;;;;;;;;18.73;30.25;99269.88;5070861;28;1882;-59
2023/02/21 12:12:16;;;;;;;;;;;;;;;18.75;29.79;99270.19;5071433;28;782;-59
2023/02/21 12:14:55;;;;;;;;;;;;;;;18.80;29.67;99266.00;5071361;28;782;-59
2023/02/21 12:17:28;;;;;;;;;;;;;;;18.86;29.59;99261.31;5071223;28;830;-59
2023/02/21 12:20:09;;;;;;;;;;;;;;;18.84;29.78;99257.41;5070971;28;921;-58
2023/02/21 12:22:43;;;;;;;;;;;;;;;19.20;29.55;99253.66;5071205;28;897;-59
2023/02/21 12:25:22;;;;;;;;;;;;;;;19.56;28.62;99247.06;5071192;28;813;-59
2023/02/21 12:27:52;;;;;;;;;;;;;;;20.28;28.51;99248.97;5073491;28;1282;-59
2023/02/21 12:30:45;;;;;;;;;;;;;;;20.99;26.72;99240.72;5074630;28;1909;-59
2023/02/21 12:33:21;;;;;;;;;;;;;;;21.15;25.79;99234.56;5074898;28;869;-59
2023/02/21 12:36:01;;;;;;;;;;;;;;;21.51;23.96;99235.34;5074499;28;929;-59
2023/02/21 12:38:29;;;;;;;;;;;;;;;22.07;23.91;99226.78;5074927;28;826;-59
2023/02/21 12:41:14;;;;;;;;;;;;;;;22.52;22.80;99215.19;5074478;28;945;-59
2023/02/21 12:43:47;;;;;;;;;;;;;;;22.88;22.25;99210.84;5074446;28;862;-59
2023/02/21 12:46:14;;;;;;;;;;;;;;;23.03;21.63;99185.34;5074305;28;883;-61
2023/02/21 12:48:48;;;;;;;;;;;;;;;22.79;21.52;99214.63;5074515;28;809;-59
2023/02/21 12:51:20;;;;;;;;;;;;;;;22.59;21.33;99203.44;5074235;28;1914;-59
2023/02/21 12:53:49;;;;;;;;;;;;;;;23.07;21.48;99199.97;5074276;28;858;-60
2023/02/21 12:56:20;;;;;;;;;;;;;;;23.48;20.88;99194.03;5074334;28;865;-61
2023/02/21 12:58:50;;;;;;;;;;;;;;;23.49;20.82;99200.41;5074223;28;888;-60
2023/02/21 13:01:23;;;;;;;;;;;;;;;23.53;20.45;99196.09;5074221;28;818;-59
2023/02/21 13:04:20;;;;;;;;;;;;;;;23.37;20.90;99199.63;5074058;28;1255;-59
2023/02/21 13:07:06;;;;;;;;;;;;;;;23.33;20.46;99201.91;5052763;28;1298;-61
2023/02/21 13:09:44;;;;;;;;;;;;;;;23.41;20.74;99180.41;5073985;28;1190;-61
2023/02/21 13:12:13;;;;;;;;;;;;;;;23.18;20.90;99200.03;5074018;28;857;-61
2023/02/21 13:14:40;;;;;;;;;;;;;;;22.88;21.26;99205.22;5074244;28;790;-59
2023/02/21 13:17:10;;;;;;;;;;;;;;;22.74;21.37;99200.50;5073897;28;841;-59
2023/02/21 13:19:42;;;;;;;;;;;;;;;22.73;21.34;99208.19;5074610;28;759;-59
2023/02/21 13:25:20;;;;;;;;;;;;;;;22.69;21.34;99199.19;5073762;28;699;-59
2023/02/21 13:27:53;;;;;;;;;;;;;;;23.01;21.35;99204.81;5073939;28;873;-59
2023/02/21 13:30:26;;;;;;;;;;;;;;;23.28;20.94;99200.59;5073625;28;1910;-59
2023/02/21 13:32:54;;;;;;;;;;;;;;;23.40;20.73;99196.53;5073622;28;845;-59
2023/02/21 13:35:27;;;;;;;;;;;;;;;23.55;20.46;99198.41;5073856;28;1007;-59
2023/02/21 13:37:59;;;;;;;;;;;;;;;23.31;20.32;99196.75;5073484;28;878;-60
2023/02/21 13:40:35;;;;;;;;;;;;;;;22.98;20.95;99195.28;5073495;28;869;-60
2023/02/21 13:43:09;;;;;;;;;;;;;;;23.01;20.82;99187.91;5073616;28;839;-61
2023/02/21 13:45:36;;;;;;;;;;;;;;;22.78;21.28;99184.91;5055505;28;843;-61
2023/02/21 13:48:05;;;;;;;;;;;;;;;22.64;21.12;99166.13;5073336;28;908;-62
2023/02/21 13:50:36;;;;;;;;;;;;;;;22.73;21.60;99191.28;5073278;28;1948;-60
2023/02/21 13:53:12;;;;;;;;;;;;;;;22.79;21.14;99174.44;5073148;28;901;-60
2023/02/21 13:55:39;;;;;;;;;;;;;;;22.48;21.39;99195.69;5073163;28;1313;-60
2023/02/21 13:58:06;;;;;;;;;;;;;;;22.54;21.58;99190.13;5073072;28;888;-60
2023/02/21 14:00:32;;;;;;;;;;;;;;;22.84;20.85;99182.91;5073016;28;853;-60
2023/02/21 14:03:01;;;;;;;;;;;;;;;22.89;20.79;99172.16;5073036;28;892;-61
2023/02/21 14:05:50;;;;;;;;;;;;;;;22.16;21.42;99178.75;5073153;28;943;-60
2023/02/21 14:08:35;;;;;;;;;;;;;;;21.93;21.52;99179.81;5072991;28;1900;-60
2023/02/21 14:11:04;;;;;;;;;;;;;;;22.15;21.45;99204.59;5072804;28;1973;-61
2023/02/21 14:13:42;;;;;;;;;;;;;;;22.13;21.54;99212.75;5073186;28;794;-59
2023/02/21 14:16:16;;;;;;;;;;;;;;;22.31;21.16;99198.38;5072893;28;833;-60
2023/02/21 14:18:43;;;;;;;;;;;;;;;22.35;21.39;99212.22;5072713;28;826;-59
2023/02/21 14:21:13;;;;;;;;;;;;;;;22.38;21.16;99205.59;5072843;28;786;-59
2023/02/21 14:23:47;;;;;;;;;;;;;;;22.47;21.41;99211.06;5073028;28;766;-59
2023/02/21 14:26:31;;;;;;;;;;;;;;;22.38;21.41;99185.88;5072953;28;872;-61
2023/02/21 14:29:00;;;;;;;;;;;;;;;22.24;21.60;99198.81;5072538;28;841;-59
2023/02/21 14:31:46;;;;;;;;;;;;;;;22.12;21.69;99203.53;5072404;28;1890;-59
2023/02/21 14:34:13;;;;;;;;;;;;;;;22.09;21.45;99184.06;5072351;28;853;-61
2023/02/21 14:36:41;;;;;;;;;;;;;;;22.01;21.68;99192.94;5072400;28;802;-59
2023/02/21 14:39:07;;;;;;;;;;;;;;;21.86;22.21;99189.47;5072587;28;850;-60
2023/02/21 14:41:57;;;;;;;;;;;;;;;21.89;21.95;99202.56;5072304;28;908;-61
2023/02/21 14:44:28;;;;;;;;;;;;;;;21.92;22.00;99193.09;5059347;28;1652;-59
2023/02/21 14:47:10;;;;;;;;;;;;;;;21.81;22.42;99195.81;5072189;28;806;-59
2023/02/21 14:49:49;;;;;;;;;;;;;;;21.50;22.21;99182.41;5071575;28;961;-60
2023/02/21 14:52:25;;;;;;;;;;;;;;;21.21;22.34;99184.84;5072077;28;849;-61
2023/02/21 14:55:10;;;;;;;;;;;;;;;20.93;22.71;99186.47;5072060;28;798;-59
2023/02/21 15:01:02;;;;;;;;;;;;;;;20.68;23.12;99185.88;5072001;28;672;-59
2023/02/21 15:03:35;;;;;;;;;;;;;;;20.50;23.50;99186.84;5071809;28;841;-59
2023/02/21 15:06:12;;;;;;;;;;;;;;;20.46;23.40;99172.25;5072047;28;909;-60
2023/02/21 15:08:45;;;;;;;;;;;;;;;20.36;23.67;99184.84;5071873;28;1391;-60
